PMI weather

Palma De Mallorca Airport
Palma De Mallorca, Baleares, Spain

Public forecast

Using degrees Celsius for public forecast. Weather courtesy of forecast.io.

METAR (pilot weather report)

Retrieved 2019/03/23 22:00 UTC (17 minutes ago):

LEPA 232200Z VRB01KT CAVOK 09/09 Q1024 NOSIG

TAF (pilot weather forecast)

Retrieved 2019/03/23 18:27 UTC (4 hours ago):

TAF LEPA 231700Z 2318/2418 23009KT 9999 FEW040 TX22/2413Z TN05/2406Z BECMG 2318/2320 VRB03KT BECMG 2408/2410 22011KT